sensor_id;sensor_type;location;lat;lon;timestamp;pressure;altitude;pressure_sealevel;temperature;humidity
15604;BME280;7902;49.042;9.092;2024-03-23T00:52:46;98312.44;;;14.87;55.33
15604;BME280;7902;49.042;9.092;2024-03-23T00:55:12;98303.34;;;14.90;54.19
15604;BME280;7902;49.042;9.092;2024-03-23T00:57:38;98306.16;;;14.88;54.34
15604;BME280;7902;49.042;9.092;2024-03-23T01:00:05;98305.31;;;14.88;54.90
15604;BME280;7902;49.042;9.092;2024-03-23T01:02:34;98302.53;;;14.89;55.08
15604;BME280;7902;49.042;9.092;2024-03-23T01:05:00;98294.28;;;14.92;54.50
15604;BME280;7902;49.042;9.092;2024-03-23T01:07:26;98297.44;;;14.96;54.37
15604;BME280;7902;49.042;9.092;2024-03-23T01:09:52;98298.28;;;14.97;53.90
15604;BME280;7902;49.042;9.092;2024-03-23T01:12:18;98294.44;;;14.91;54.98
15604;BME280;7902;49.042;9.092;2024-03-23T01:14:44;98288.22;;;15.00;55.16
15604;BME280;7902;49.042;9.092;2024-03-23T01:17:10;98287.22;;;15.01;54.09
15604;BME280;7902;49.042;9.092;2024-03-23T01:19:36;98280.50;;;15.15;54.19
15604;BME280;7902;49.042;9.092;2024-03-23T01:22:02;98272.69;;;15.05;54.55
15604;BME280;7902;49.042;9.092;2024-03-23T01:24:28;98279.31;;;15.01;53.96
15604;BME280;7902;49.042;9.092;2024-03-23T01:26:54;98273.81;;;14.94;54.44
15604;BME280;7902;49.042;9.092;2024-03-23T01:29:20;98273.13;;;14.92;54.30
15604;BME280;7902;49.042;9.092;2024-03-23T01:31:45;98258.97;;;15.02;54.71
15604;BME280;7902;49.042;9.092;2024-03-23T01:34:11;98254.97;;;14.98;53.57
15604;BME280;7902;49.042;9.092;2024-03-23T01:36:38;98260.72;;;14.85;54.26
15604;BME280;7902;49.042;9.092;2024-03-23T01:39:04;98261.78;;;15.00;54.47
15604;BME280;7902;49.042;9.092;2024-03-23T01:41:30;98247.03;;;14.89;54.42
15604;BME280;7902;49.042;9.092;2024-03-23T01:43:56;98241.81;;;15.06;53.95
15604;BME280;7902;49.042;9.092;2024-03-23T01:46:22;98223.31;;;15.06;54.99
15604;BME280;7902;49.042;9.092;2024-03-23T01:48:48;98215.06;;;15.17;54.38
15604;BME280;7902;49.042;9.092;2024-03-23T01:51:15;98214.41;;;15.15;53.41
15604;BME280;7902;49.042;9.092;2024-03-23T01:53:41;98222.47;;;14.97;54.30
15604;BME280;7902;49.042;9.092;2024-03-23T01:56:07;98222.88;;;14.84;53.72
15604;BME280;7902;49.042;9.092;2024-03-23T01:58:33;98219.47;;;14.92;53.98
15604;BME280;7902;49.042;9.092;2024-03-23T02:00:59;98212.00;;;14.87;53.77
15604;BME280;7902;49.042;9.092;2024-03-23T02:03:26;98210.03;;;14.98;54.80
15604;BME280;7902;49.042;9.092;2024-03-23T02:05:53;98206.75;;;14.96;54.42
15604;BME280;7902;49.042;9.092;2024-03-23T02:08:23;98210.03;;;14.89;53.61
15604;BME280;7902;49.042;9.092;2024-03-23T02:10:50;98202.22;;;14.80;54.29
15604;BME280;7902;49.042;9.092;2024-03-23T02:13:17;98212.25;;;14.68;54.66
15604;BME280;7902;49.042;9.092;2024-03-23T02:15:43;98212.09;;;14.70;54.57
15604;BME280;7902;49.042;9.092;2024-03-23T02:18:10;98202.72;;;14.83;54.26
15604;BME280;7902;49.042;9.092;2024-03-23T02:20:37;98205.91;;;14.95;54.68
15604;BME280;7902;49.042;9.092;2024-03-23T02:23:04;98205.06;;;14.86;55.05
15604;BME280;7902;49.042;9.092;2024-03-23T02:25:32;98201.56;;;14.78;55.11
15604;BME280;7902;49.042;9.092;2024-03-23T02:27:59;98187.34;;;14.79;55.07
15604;BME280;7902;49.042;9.092;2024-03-23T02:30:26;98185.72;;;14.78;54.87
15604;BME280;7902;49.042;9.092;2024-03-23T02:32:52;98171.84;;;14.84;54.76
15604;BME280;7902;49.042;9.092;2024-03-23T02:35:18;98174.13;;;14.79;54.29
15604;BME280;7902;49.042;9.092;2024-03-23T02:37:46;98171.66;;;14.77;54.24
15604;BME280;7902;49.042;9.092;2024-03-23T02:40:12;98176.63;;;14.80;54.68
15604;BME280;7902;49.042;9.092;2024-03-23T02:42:37;98197.50;;;14.58;54.71
15604;BME280;7902;49.042;9.092;2024-03-23T02:45:04;98194.13;;;14.81;54.82
15604;BME280;7902;49.042;9.092;2024-03-23T02:47:30;98186.53;;;14.78;54.75
15604;BME280;7902;49.042;9.092;2024-03-23T02:49:56;98187.22;;;14.88;55.02
15604;BME280;7902;49.042;9.092;2024-03-23T02:52:22;98191.50;;;14.89;53.91
15604;BME280;7902;49.042;9.092;2024-03-23T02:54:48;98169.59;;;15.05;54.50
15604;BME280;7902;49.042;9.092;2024-03-23T02:57:14;98176.22;;;15.09;54.30
15604;BME280;7902;49.042;9.092;2024-03-23T02:59:41;98186.78;;;15.09;54.04
15604;BME280;7902;49.042;9.092;2024-03-23T03:02:07;98172.06;;;15.07;53.92
15604;BME280;7902;49.042;9.092;2024-03-23T03:04:33;98163.16;;;15.08;54.67
15604;BME280;7902;49.042;9.092;2024-03-23T03:07:00;98158.53;;;15.18;53.47
15604;BME280;7902;49.042;9.092;2024-03-23T03:09:26;98158.72;;;15.24;54.52
15604;BME280;7902;49.042;9.092;2024-03-23T03:11:52;98163.50;;;15.21;54.03
15604;BME280;7902;49.042;9.092;2024-03-23T03:14:18;98161.03;;;15.19;53.84
15604;BME280;7902;49.042;9.092;2024-03-23T03:16:43;98146.00;;;15.28;54.20
15604;BME280;7902;49.042;9.092;2024-03-23T03:19:09;98148.78;;;15.26;54.32
15604;BME280;7902;49.042;9.092;2024-03-23T03:21:36;98155.75;;;15.27;54.25
15604;BME280;7902;49.042;9.092;2024-03-23T03:24:04;98157.41;;;15.28;54.12
15604;BME280;7902;49.042;9.092;2024-03-23T03:26:30;98145.16;;;15.27;53.97
15604;BME280;7902;49.042;9.092;2024-03-23T03:28:56;98146.69;;;15.30;53.33
15604;BME280;7902;49.042;9.092;2024-03-23T03:31:22;98139.53;;;15.30;54.70
15604;BME280;7902;49.042;9.092;2024-03-23T03:33:49;98153.75;;;15.21;54.78
15604;BME280;7902;49.042;9.092;2024-03-23T03:36:15;98148.16;;;15.24;54.51
15604;BME280;7902;49.042;9.092;2024-03-23T03:38:41;98139.88;;;15.19;55.15
15604;BME280;7902;49.042;9.092;2024-03-23T03:41:07;98145.81;;;15.21;55.72
15604;BME280;7902;49.042;9.092;2024-03-23T03:43:33;98135.22;;;15.21;56.27
15604;BME280;7902;49.042;9.092;2024-03-23T03:46:00;98124.00;;;15.19;56.52
15604;BME280;7902;49.042;9.092;2024-03-23T03:48:27;98116.91;;;15.20;55.53
15604;BME280;7902;49.042;9.092;2024-03-23T03:50:53;98115.09;;;15.20;55.95
15604;BME280;7902;49.042;9.092;2024-03-23T03:53:19;98116.06;;;15.11;55.13
15604;BME280;7902;49.042;9.092;2024-03-23T03:55:45;98123.19;;;15.27;55.25
15604;BME280;7902;49.042;9.092;2024-03-23T03:58:11;98108.16;;;15.19;55.59
15604;BME280;7902;49.042;9.092;2024-03-23T04:00:37;98103.84;;;15.10;56.50
15604;BME280;7902;49.042;9.092;2024-03-23T04:03:03;98107.81;;;15.22;55.50
15604;BME280;7902;49.042;9.092;2024-03-23T04:05:29;98122.38;;;15.34;55.42
15604;BME280;7902;49.042;9.092;2024-03-23T04:07:55;98108.16;;;15.11;56.65
15604;BME280;7902;49.042;9.092;2024-03-23T04:10:21;98102.84;;;15.19;56.94
15604;BME280;7902;49.042;9.092;2024-03-23T04:12:47;98100.84;;;15.13;57.49
15604;BME280;7902;49.042;9.092;2024-03-23T04:15:13;98095.06;;;15.18;58.07
15604;BME280;7902;49.042;9.092;2024-03-23T04:17:39;98101.19;;;15.18;57.82
15604;BME280;7902;49.042;9.092;2024-03-23T04:20:08;98110.59;;;15.21;57.65
15604;BME280;7902;49.042;9.092;2024-03-23T04:22:37;98120.38;;;15.28;57.96
15604;BME280;7902;49.042;9.092;2024-03-23T04:25:03;98125.34;;;15.23;58.71
15604;BME280;7902;49.042;9.092;2024-03-23T04:27:35;98128.47;;;15.35;58.30
15604;BME280;7902;49.042;9.092;2024-03-23T04:30:01;98130.09;;;15.12;59.08
15604;BME280;7902;49.042;9.092;2024-03-23T04:32:29;98128.13;;;15.22;58.69
15604;BME280;7902;49.042;9.092;2024-03-23T04:34:55;98121.19;;;15.21;58.99
15604;BME280;7902;49.042;9.092;2024-03-23T04:37:21;98124.00;;;15.11;59.21
15604;BME280;7902;49.042;9.092;2024-03-23T04:39:47;98118.72;;;15.19;59.00
15604;BME280;7902;49.042;9.092;2024-03-23T04:42:15;98109.81;;;15.28;58.66
15604;BME280;7902;49.042;9.092;2024-03-23T04:44:42;98110.78;;;15.27;59.58
15604;BME280;7902;49.042;9.092;2024-03-23T04:47:07;98123.97;;;15.03;60.14
15604;BME280;7902;49.042;9.092;2024-03-23T04:49:33;98115.88;;;15.05;59.74
15604;BME280;7902;49.042;9.092;2024-03-23T04:52:05;98119.03;;;15.08;59.78
15604;BME280;7902;49.042;9.092;2024-03-23T04:54:31;98125.13;;;15.01;59.70
15604;BME280;7902;49.042;9.092;2024-03-23T04:57:00;98128.13;;;15.06;59.62
15604;BME280;7902;49.042;9.092;2024-03-23T04:59:26;98143.47;;;15.02;60.73
15604;BME280;7902;49.042;9.092;2024-03-23T05:01:52;98137.88;;;15.05;60.25
15604;BME280;7902;49.042;9.092;2024-03-23T05:04:18;98135.38;;;15.04;60.30
15604;BME280;7902;49.042;9.092;2024-03-23T05:06:44;98127.09;;;14.90;60.97
15604;BME280;7902;49.042;9.092;2024-03-23T05:09:10;98137.03;;;15.05;60.86
15604;BME280;7902;49.042;9.092;2024-03-23T05:11:38;98134.88;;;15.00;61.23
15604;BME280;7902;49.042;9.092;2024-03-23T05:14:04;98142.81;;;15.00;61.42
15604;BME280;7902;49.042;9.092;2024-03-23T05:16:30;98151.72;;;14.99;60.47
15604;BME280;7902;49.042;9.092;2024-03-23T05:18:56;98149.13;;;15.15;60.38
15604;BME280;7902;49.042;9.092;2024-03-23T05:21:22;98160.00;;;14.96;60.86
15604;BME280;7902;49.042;9.092;2024-03-23T05:23:48;98161.47;;;14.90;61.00
15604;BME280;7902;49.042;9.092;2024-03-23T05:26:14;98164.94;;;14.99;61.35
15604;BME280;7902;49.042;9.092;2024-03-23T05:28:40;98177.31;;;14.90;61.32
15604;BME280;7902;49.042;9.092;2024-03-23T05:31:06;98174.78;;;14.73;62.16
15604;BME280;7902;49.042;9.092;2024-03-23T05:33:32;98177.78;;;14.78;60.88
15604;BME280;7902;49.042;9.092;2024-03-23T05:35:59;98174.00;;;14.88;60.91
15604;BME280;7902;49.042;9.092;2024-03-23T05:38:26;98159.25;;;14.70;61.47
15604;BME280;7902;49.042;9.092;2024-03-23T05:40:56;98157.91;;;14.66;61.35
15604;BME280;7902;49.042;9.092;2024-03-23T05:43:22;98146.38;;;14.75;60.55
15604;BME280;7902;49.042;9.092;2024-03-23T05:45:58;98165.19;;;14.64;60.95
15604;BME280;7902;49.042;9.092;2024-03-23T05:48:26;98167.00;;;14.71;61.23
15604;BME280;7902;49.042;9.092;2024-03-23T05:50:52;98177.84;;;14.60;61.33
15604;BME280;7902;49.042;9.092;2024-03-23T05:53:19;98175.09;;;14.70;61.31
15604;BME280;7902;49.042;9.092;2024-03-23T05:55:48;98180.19;;;14.63;60.46
15604;BME280;7902;49.042;9.092;2024-03-23T05:58:17;98193.88;;;14.59;60.73
15604;BME280;7902;49.042;9.092;2024-03-23T06:00:44;98184.00;;;14.35;60.90
15604;BME280;7902;49.042;9.092;2024-03-23T06:03:10;98197.31;;;14.25;61.57
15604;BME280;7902;49.042;9.092;2024-03-23T06:05:37;98216.56;;;14.18;61.54
15604;BME280;7902;49.042;9.092;2024-03-23T06:08:03;98218.94;;;14.29;61.09
15604;BME280;7902;49.042;9.092;2024-03-23T06:10:29;98211.72;;;14.31;61.94
15604;BME280;7902;49.042;9.092;2024-03-23T06:12:55;98208.84;;;14.24;61.74
15604;BME280;7902;49.042;9.092;2024-03-23T06:15:21;98199.63;;;14.28;62.42
15604;BME280;7902;49.042;9.092;2024-03-23T06:17:48;98200.59;;;14.27;61.94
15604;BME280;7902;49.042;9.092;2024-03-23T06:20:14;98206.91;;;14.26;61.96
15604;BME280;7902;49.042;9.092;2024-03-23T06:22:40;98214.16;;;14.32;61.97
15604;BME280;7902;49.042;9.092;2024-03-23T06:25:06;98237.88;;;14.24;62.63
15604;BME280;7902;49.042;9.092;2024-03-23T06:27:33;98246.50;;;14.26;62.04
15604;BME280;7902;49.042;9.092;2024-03-23T06:29:59;98260.97;;;14.22;61.83
15604;BME280;7902;49.042;9.092;2024-03-23T06:32:25;98263.38;;;14.33;61.59
15604;BME280;7902;49.042;9.092;2024-03-23T06:34:51;98275.41;;;14.10;62.29
15604;BME280;7902;49.042;9.092;2024-03-23T06:37:17;98273.19;;;14.23;61.75
15604;BME280;7902;49.042;9.092;2024-03-23T06:39:45;98274.53;;;14.27;61.41
15604;BME280;7902;49.042;9.092;2024-03-23T06:42:12;98280.19;;;14.06;61.22
15604;BME280;7902;49.042;9.092;2024-03-23T06:44:37;98286.28;;;14.07;60.09
15604;BME280;7902;49.042;9.092;2024-03-23T06:47:03;98294.94;;;13.99;59.83
15604;BME280;7902;49.042;9.092;2024-03-23T06:49:29;98305.88;;;14.04;60.06
15604;BME280;7902;49.042;9.092;2024-03-23T06:51:55;98303.41;;;14.03;59.69
15604;BME280;7902;49.042;9.092;2024-03-23T06:54:21;98330.69;;;13.94;59.26
15604;BME280;7902;49.042;9.092;2024-03-23T06:56:47;98329.72;;;13.95;59.81
15604;BME280;7902;49.042;9.092;2024-03-23T06:59:13;98336.22;;;13.83;59.76
15604;BME280;7902;49.042;9.092;2024-03-23T07:01:39;98328.50;;;13.89;59.72
15604;BME280;7902;49.042;9.092;2024-03-23T07:04:05;98341.19;;;13.86;59.95
15604;BME280;7902;49.042;9.092;2024-03-23T07:06:31;98350.59;;;13.71;59.52
15604;BME280;7902;49.042;9.092;2024-03-23T07:08:57;98372.50;;;13.71;59.80
15604;BME280;7902;49.042;9.092;2024-03-23T07:11:23;98372.84;;;13.86;59.58
15604;BME280;7902;49.042;9.092;2024-03-23T07:13:50;98379.16;;;13.75;59.68
15604;BME280;7902;49.042;9.092;2024-03-23T07:16:17;98382.03;;;13.82;59.61
15604;BME280;7902;49.042;9.092;2024-03-23T07:18:43;98377.97;;;13.87;59.53
15604;BME280;7902;49.042;9.092;2024-03-23T07:21:09;98390.84;;;13.73;59.13
15604;BME280;7902;49.042;9.092;2024-03-23T07:23:35;98406.09;;;13.79;59.47
15604;BME280;7902;49.042;9.092;2024-03-23T07:26:05;98405.59;;;13.66;59.43
15604;BME280;7902;49.042;9.092;2024-03-23T07:28:31;98415.28;;;13.75;58.96
15604;BME280;7902;49.042;9.092;2024-03-23T07:31:09;98404.94;;;13.81;59.17
15604;BME280;7902;49.042;9.092;2024-03-23T07:33:36;98413.84;;;13.80;59.60
15604;BME280;7902;49.042;9.092;2024-03-23T07:36:03;98410.16;;;13.73;59.61
15604;BME280;7902;49.042;9.092;2024-03-23T07:38:29;98405.34;;;13.86;58.64
15604;BME280;7902;49.042;9.092;2024-03-23T07:41:09;98404.19;;;13.71;59.07
15604;BME280;7902;49.042;9.092;2024-03-23T07:43:37;98414.00;;;13.79;58.91
15604;BME280;7902;49.042;9.092;2024-03-23T07:46:04;98420.84;;;13.72;58.16
15604;BME280;7902;49.042;9.092;2024-03-23T07:48:33;98434.53;;;13.57;58.07
15604;BME280;7902;49.042;9.092;2024-03-23T07:53:29;98457.50;;;13.75;57.98
15604;BME280;7902;49.042;9.092;2024-03-23T07:56:00;98477.59;;;13.48;59.02
15604;BME280;7902;49.042;9.092;2024-03-23T07:58:26;98501.22;;;13.40;59.16
15604;BME280;7902;49.042;9.092;2024-03-23T08:00:56;98507.63;;;13.09;60.60
15604;BME280;7902;49.042;9.092;2024-03-23T08:03:29;98508.22;;;13.03;60.76
15604;BME280;7902;49.042;9.092;2024-03-23T08:05:54;98515.84;;;12.87;61.02
15604;BME280;7902;49.042;9.092;2024-03-23T08:08:20;98517.09;;;12.92;60.98
15604;BME280;7902;49.042;9.092;2024-03-23T08:10:50;98517.91;;;13.02;61.39
15604;BME280;7902;49.042;9.092;2024-03-23T08:13:17;98525.28;;;12.89;61.36
15604;BME280;7902;49.042;9.092;2024-03-23T08:15:43;98534.88;;;12.81;61.72
15604;BME280;7902;49.042;9.092;2024-03-23T08:18:12;98532.19;;;13.09;61.12
15604;BME280;7902;49.042;9.092;2024-03-23T08:20:39;98533.44;;;12.96;60.82
15604;BME280;7902;49.042;9.092;2024-03-23T08:23:06;98539.13;;;13.01;60.51
15604;BME280;7902;49.042;9.092;2024-03-23T08:25:32;98539.56;;;13.06;60.73
15604;BME280;7902;49.042;9.092;2024-03-23T08:27:58;98540.94;;;13.00;60.09
15604;BME280;7902;49.042;9.092;2024-03-23T08:30:25;98544.56;;;12.90;60.05
15604;BME280;7902;49.042;9.092;2024-03-23T08:32:51;98552.19;;;12.93;60.58
15604;BME280;7902;49.042;9.092;2024-03-23T08:35:17;98553.69;;;13.05;60.51
15604;BME280;7902;49.042;9.092;2024-03-23T08:37:43;98564.22;;;13.05;60.76
15604;BME280;7902;49.042;9.092;2024-03-23T08:40:09;98567.56;;;13.07;60.61
15604;BME280;7902;49.042;9.092;2024-03-23T08:42:35;98577.59;;;13.13;60.34
15604;BME280;7902;49.042;9.092;2024-03-23T08:45:02;98578.13;;;13.36;60.04
15604;BME280;7902;49.042;9.092;2024-03-23T08:47:28;98583.41;;;13.26;58.04
15604;BME280;7902;49.042;9.092;2024-03-23T08:49:54;98584.38;;;13.35;57.99
15604;BME280;7902;49.042;9.092;2024-03-23T08:52:21;98581.75;;;13.25;57.56
15604;BME280;7902;49.042;9.092;2024-03-23T08:54:48;98590.88;;;13.40;58.08
15604;BME280;7902;49.042;9.092;2024-03-23T08:57:14;98603.09;;;13.51;57.12
15604;BME280;7902;49.042;9.092;2024-03-23T08:59:40;98600.06;;;13.36;56.97
15604;BME280;7902;49.042;9.092;2024-03-23T09:02:06;98618.75;;;13.52;58.00
15604;BME280;7902;49.042;9.092;2024-03-23T09:04:32;98615.28;;;13.52;57.52
15604;BME280;7902;49.042;9.092;2024-03-23T09:06:58;98626.13;;;13.49;57.48
15604;BME280;7902;49.042;9.092;2024-03-23T09:09:25;98625.00;;;13.51;57.20
15604;BME280;7902;49.042;9.092;2024-03-23T09:11:51;98623.34;;;13.50;57.36
15604;BME280;7902;49.042;9.092;2024-03-23T09:14:17;98626.41;;;13.55;56.86
15604;BME280;7902;49.042;9.092;2024-03-23T09:16:43;98640.16;;;13.30;57.04
15604;BME280;7902;49.042;9.092;2024-03-23T09:19:09;98633.31;;;13.56;56.82
15604;BME280;7902;49.042;9.092;2024-03-23T09:21:35;98626.81;;;13.60;56.48
15604;BME280;7902;49.042;9.092;2024-03-23T09:24:01;98638.34;;;13.59;56.07
15604;BME280;7902;49.042;9.092;2024-03-23T09:26:27;98632.50;;;13.56;56.54
15604;BME280;7902;49.042;9.092;2024-03-23T09:28:55;98633.06;;;13.59;55.26
15604;BME280;7902;49.042;9.092;2024-03-23T09:31:21;98638.19;;;13.51;54.09
15604;BME280;7902;49.042;9.092;2024-03-23T09:33:47;98647.50;;;13.55;54.15
15604;BME280;7902;49.042;9.092;2024-03-23T09:36:13;98656.94;;;13.48;54.27
15604;BME280;7902;49.042;9.092;2024-03-23T09:38:41;98658.72;;;13.57;54.52
15604;BME280;7902;49.042;9.092;2024-03-23T09:41:08;98662.50;;;13.55;53.75
15604;BME280;7902;49.042;9.092;2024-03-23T09:43:34;98662.91;;;13.70;54.29
15604;BME280;7902;49.042;9.092;2024-03-23T09:46:01;98668.31;;;13.68;54.10
15604;BME280;7902;49.042;9.092;2024-03-23T09:48:28;98655.41;;;13.75;54.16
15604;BME280;7902;49.042;9.092;2024-03-23T09:50:54;98659.81;;;13.84;53.61
15604;BME280;7902;49.042;9.092;2024-03-23T09:53:20;98662.69;;;13.90;53.30
15604;BME280;7902;49.042;9.092;2024-03-23T09:55:48;98648.97;;;13.87;53.05
15604;BME280;7902;49.042;9.092;2024-03-23T09:58:15;98658.28;;;13.81;51.65
15604;BME280;7902;49.042;9.092;2024-03-23T10:00:42;98655.22;;;13.86;51.74
15604;BME280;7902;49.042;9.092;2024-03-23T10:03:08;98656.34;;;13.83;50.04
15604;BME280;7902;49.042;9.092;2024-03-23T10:05:37;98665.78;;;13.86;50.82
15604;BME280;7902;49.042;9.092;2024-03-23T10:10:42;98659.38;;;13.88;50.35
15604;BME280;7902;49.042;9.092;2024-03-23T10:13:08;98665.63;;;13.87;50.86
15604;BME280;7902;49.042;9.092;2024-03-23T10:15:35;98652.59;;;13.76;50.83
15604;BME280;7902;49.042;9.092;2024-03-23T10:18:20;98654.13;;;13.79;51.82
15604;BME280;7902;49.042;9.092;2024-03-23T10:21:14;98652.06;;;13.73;50.21
15604;BME280;7902;49.042;9.092;2024-03-23T10:23:39;98670.78;;;13.89;52.00
15604;BME280;7902;49.042;9.092;2024-03-23T10:26:24;98655.78;;;13.80;50.70
15604;BME280;7902;49.042;9.092;2024-03-23T10:28:57;98648.59;;;13.62;51.05
15604;BME280;7902;49.042;9.092;2024-03-23T10:31:34;98656.50;;;13.62;51.54
15604;BME280;7902;49.042;9.092;2024-03-23T10:34:03;98672.09;;;13.56;49.92
15604;BME280;7902;49.042;9.092;2024-03-23T10:36:29;98676.25;;;13.49;51.35
15604;BME280;7902;49.042;9.092;2024-03-23T10:38:56;98668.03;;;13.42;49.65
15604;BME280;7902;49.042;9.092;2024-03-23T10:41:28;98674.56;;;13.48;50.34
15604;BME280;7902;49.042;9.092;2024-03-23T10:43:58;98690.94;;;13.51;49.97
15604;BME280;7902;49.042;9.092;2024-03-23T10:46:24;98685.81;;;13.40;49.95
15604;BME280;7902;49.042;9.092;2024-03-23T10:48:50;98694.56;;;13.31;50.82
15604;BME280;7902;49.042;9.092;2024-03-23T10:51:16;98700.09;;;13.28;51.43
15604;BME280;7902;49.042;9.092;2024-03-23T10:53:43;98694.44;;;13.13;50.69
15604;BME280;7902;49.042;9.092;2024-03-23T10:56:11;98689.97;;;13.24;52.13
15604;BME280;7902;49.042;9.092;2024-03-23T10:58:39;98679.41;;;13.14;51.66
15604;BME280;7902;49.042;9.092;2024-03-23T11:01:06;98679.41;;;13.33;51.84
15604;BME280;7902;49.042;9.092;2024-03-23T11:03:34;98674.44;;;13.30;51.50
15604;BME280;7902;49.042;9.092;2024-03-23T11:06:03;98672.63;;;13.40;50.58
15604;BME280;7902;49.042;9.092;2024-03-23T11:08:40;98668.47;;;13.28;50.77
15604;BME280;7902;49.042;9.092;2024-03-23T11:11:18;98667.38;;;13.31;50.58
15604;BME280;7902;49.042;9.092;2024-03-23T11:13:47;98670.97;;;13.39;50.07
15604;BME280;7902;49.042;9.092;2024-03-23T11:16:14;98665.81;;;13.47;50.57
15604;BME280;7902;49.042;9.092;2024-03-23T11:18:41;98663.06;;;13.49;49.97
15604;BME280;7902;49.042;9.092;2024-03-23T11:21:08;98668.59;;;13.55;49.77
15604;BME280;7902;49.042;9.092;2024-03-23T11:23:34;98662.63;;;13.63;49.96
15604;BME280;7902;49.042;9.092;2024-03-23T11:26:00;98652.19;;;13.61;49.62
15604;BME280;7902;49.042;9.092;2024-03-23T11:28:26;98661.19;;;13.88;50.32
15604;BME280;7902;49.042;9.092;2024-03-23T11:30:51;98668.88;;;13.43;48.65
15604;BME280;7902;49.042;9.092;2024-03-23T11:33:17;98669.69;;;13.62;49.61
15604;BME280;7902;49.042;9.092;2024-03-23T11:35:44;98664.53;;;13.71;48.47
15604;BME280;7902;49.042;9.092;2024-03-23T11:38:14;98663.25;;;13.94;48.09
15604;BME280;7902;49.042;9.092;2024-03-23T11:40:48;98654.66;;;13.82;47.45
15604;BME280;7902;49.042;9.092;2024-03-23T11:43:19;98660.34;;;13.87;46.70
15604;BME280;7902;49.042;9.092;2024-03-23T11:45:46;98663.84;;;13.88;46.87
15604;BME280;7902;49.042;9.092;2024-03-23T11:48:16;98660.91;;;13.91;46.56
15604;BME280;7902;49.042;9.092;2024-03-23T11:50:46;98662.81;;;13.98;45.74
15604;BME280;7902;49.042;9.092;2024-03-23T11:53:15;98659.34;;;14.07;45.88
15604;BME280;7902;49.042;9.092;2024-03-23T11:55:43;98653.50;;;14.04;44.63
15604;BME280;7902;49.042;9.092;2024-03-23T11:58:10;98644.59;;;14.05;44.95
15604;BME280;7902;49.042;9.092;2024-03-23T12:00:37;98657.38;;;14.10;45.40
15604;BME280;7902;49.042;9.092;2024-03-23T12:03:03;98659.78;;;14.03;44.88
15604;BME280;7902;49.042;9.092;2024-03-23T12:05:30;98657.63;;;14.16;44.75
15604;BME280;7902;49.042;9.092;2024-03-23T12:10:47;98644.75;;;14.03;44.09
15604;BME280;7902;49.042;9.092;2024-03-23T12:13:15;98646.78;;;14.19;44.07
15604;BME280;7902;49.042;9.092;2024-03-23T12:15:44;98643.84;;;14.22;44.89
15604;BME280;7902;49.042;9.092;2024-03-23T12:18:10;98638.69;;;14.30;45.60
15604;BME280;7902;49.042;9.092;2024-03-23T12:20:37;98632.56;;;14.39;44.88
15604;BME280;7902;49.042;9.092;2024-03-23T12:23:10;98633.53;;;14.38;44.66
15604;BME280;7902;49.042;9.092;2024-03-23T12:25:38;98622.59;;;14.51;44.17
15604;BME280;7902;49.042;9.092;2024-03-23T12:28:05;98615.50;;;14.52;44.78
15604;BME280;7902;49.042;9.092;2024-03-23T12:30:35;98615.28;;;14.45;44.47
15604;BME280;7902;49.042;9.092;2024-03-23T12:33:02;98617.72;;;14.56;45.51
15604;BME280;7902;49.042;9.092;2024-03-23T12:35:29;98622.41;;;13.98;44.07
15604;BME280;7902;49.042;9.092;2024-03-23T12:37:54;98620.56;;;14.45;44.07
15604;BME280;7902;49.042;9.092;2024-03-23T12:40:20;98624.69;;;14.75;43.85
15604;BME280;7902;49.042;9.092;2024-03-23T12:42:46;98618.13;;;14.79;43.91
15604;BME280;7902;49.042;9.092;2024-03-23T12:45:12;98609.41;;;14.96;43.81
15604;BME280;7902;49.042;9.092;2024-03-23T12:47:38;98613.59;;;15.07;44.13
15604;BME280;7902;49.042;9.092;2024-03-23T12:50:04;98630.69;;;15.12;44.32
15604;BME280;7902;49.042;9.092;2024-03-23T12:52:34;98623.13;;;15.17;44.83
15604;BME280;7902;49.042;9.092;2024-03-23T12:55:00;98619.22;;;15.04;43.19
15604;BME280;7902;49.042;9.092;2024-03-23T12:57:26;98619.81;;;15.15;43.39
15604;BME280;7902;49.042;9.092;2024-03-23T12:59:53;98628.41;;;15.17;44.83
15604;BME280;7902;49.042;9.092;2024-03-23T13:02:22;98622.00;;;15.20;44.66
15604;BME280;7902;49.042;9.092;2024-03-23T13:04:52;98617.78;;;15.09;44.65
15604;BME280;7902;49.042;9.092;2024-03-23T13:07:19;98605.59;;;15.34;44.39
15604;BME280;7902;49.042;9.092;2024-03-23T13:09:45;98612.38;;;15.36;43.25
15604;BME280;7902;49.042;9.092;2024-03-23T13:12:12;98594.94;;;15.44;44.97
15604;BME280;7902;49.042;9.092;2024-03-23T13:14:38;98609.09;;;15.34;44.39
15604;BME280;7902;49.042;9.092;2024-03-23T13:17:05;98591.41;;;15.17;44.37
15604;BME280;7902;49.042;9.092;2024-03-23T13:19:31;98592.47;;;15.24;43.85
15604;BME280;7902;49.042;9.092;2024-03-23T13:21:58;98606.63;;;15.59;42.81
15604;BME280;7902;49.042;9.092;2024-03-23T13:24:24;98592.28;;;15.44;43.71
15604;BME280;7902;49.042;9.092;2024-03-23T13:26:52;98602.13;;;15.51;42.44
15604;BME280;7902;49.042;9.092;2024-03-23T13:29:21;98586.09;;;15.53;42.62
15604;BME280;7902;49.042;9.092;2024-03-23T13:31:48;98579.06;;;15.44;42.46
15604;BME280;7902;49.042;9.092;2024-03-23T13:34:15;98581.22;;;15.66;41.44
15604;BME280;7902;49.042;9.092;2024-03-23T13:36:44;98598.91;;;15.65;41.35
15604;BME280;7902;49.042;9.092;2024-03-23T13:39:10;98619.34;;;15.37;42.12
15604;BME280;7902;49.042;9.092;2024-03-23T13:41:44;98648.91;;;15.33;42.61
15604;BME280;7902;49.042;9.092;2024-03-23T13:44:12;98678.03;;;14.88;45.33
15604;BME280;7902;49.042;9.092;2024-03-23T13:46:39;98693.91;;;14.61;48.20
15604;BME280;7902;49.042;9.092;2024-03-23T13:49:05;98668.94;;;14.45;48.94
15604;BME280;7902;49.042;9.092;2024-03-23T13:51:32;98657.28;;;14.38;50.29
15604;BME280;7902;49.042;9.092;2024-03-23T13:53:58;98654.34;;;14.41;51.09
15604;BME280;7902;49.042;9.092;2024-03-23T13:56:28;98643.59;;;14.53;51.09
15604;BME280;7902;49.042;9.092;2024-03-23T13:58:56;98629.53;;;14.79;49.98
15604;BME280;7902;49.042;9.092;2024-03-23T14:01:23;98639.66;;;14.84;49.75
15604;BME280;7902;49.042;9.092;2024-03-23T14:03:49;98638.06;;;14.73;48.09
15604;BME280;7902;49.042;9.092;2024-03-23T14:06:15;98630.22;;;14.99;45.98
15604;BME280;7902;49.042;9.092;2024-03-23T14:08:41;98647.19;;;15.06;44.42